sensor_id;sensor_type;location;lat;lon;timestamp;P1;P2;P0
80861;PMS5003;71798;54.942;73.444;2024-02-23T00:01:28;60.25;47.00;28.00
80861;PMS5003;71798;54.942;73.444;2024-02-23T00:03:55;58.00;45.00;26.00
80861;PMS5003;71798;54.942;73.444;2024-02-23T00:06:23;50.00;39.00;23.50
80861;PMS5003;71798;54.942;73.444;2024-02-23T00:08:53;59.00;45.00;26.25
80861;PMS5003;71798;54.942;73.444;2024-02-23T00:11:20;60.00;47.25;29.00
80861;PMS5003;71798;54.942;73.444;2024-02-23T00:13:47;54.75;43.25;26.75
80861;PMS5003;71798;54.942;73.444;2024-02-23T00:16:13;56.25;44.00;27.00
80861;PMS5003;71798;54.942;73.444;2024-02-23T00:18:39;50.00;39.25;23.00
80861;PMS5003;71798;54.942;73.444;2024-02-23T00:21:05;52.25;39.75;24.25
80861;PMS5003;71798;54.942;73.444;2024-02-23T00:23:31;51.00;40.50;25.00
80861;PMS5003;71798;54.942;73.444;2024-02-23T00:25:57;56.25;44.00;28.00
80861;PMS5003;71798;54.942;73.444;2024-02-23T00:28:24;63.00;47.00;28.00
80861;PMS5003;71798;54.942;73.444;2024-02-23T00:30:50;54.75;44.00;27.75
80861;PMS5003;71798;54.942;73.444;2024-02-23T00:33:17;46.25;37.25;23.00
80861;PMS5003;71798;54.942;73.444;2024-02-23T00:35:43;58.25;46.00;28.75
80861;PMS5003;71798;54.942;73.444;2024-02-23T00:38:09;61.00;47.50;29.00
80861;PMS5003;71798;54.942;73.444;2024-02-23T00:40:35;59.25;45.00;27.00
80861;PMS5003;71798;54.942;73.444;2024-02-23T00:43:01;59.25;46.00;28.00
80861;PMS5003;71798;54.942;73.444;2024-02-23T00:45:29;57.50;45.00;28.00
80861;PMS5003;71798;54.942;73.444;2024-02-23T00:47:55;48.75;38.75;24.00
80861;PMS5003;71798;54.942;73.444;2024-02-23T00:50:23;54.00;44.00;28.00
80861;PMS5003;71798;54.942;73.444;2024-02-23T00:52:52;54.50;42.25;25.50
80861;PMS5003;71798;54.942;73.444;2024-02-23T00:55:19;57.00;46.00;28.75
80861;PMS5003;71798;54.942;73.444;2024-02-23T00:57:45;58.75;46.00;28.00
80861;PMS5003;71798;54.942;73.444;2024-02-23T01:00:11;57.00;44.00;24.25
80861;PMS5003;71798;54.942;73.444;2024-02-23T01:02:38;70.00;54.00;33.00
80861;PMS5003;71798;54.942;73.444;2024-02-23T01:05:05;69.00;54.50;33.00
80861;PMS5003;71798;54.942;73.444;2024-02-23T01:07:32;69.25;53.50;32.25
80861;PMS5003;71798;54.942;73.444;2024-02-23T01:09:58;62.00;47.00;30.00
80861;PMS5003;71798;54.942;73.444;2024-02-23T01:12:26;67.00;52.00;32.75
80861;PMS5003;71798;54.942;73.444;2024-02-23T01:14:53;65.75;49.50;30.00
80861;PMS5003;71798;54.942;73.444;2024-02-23T01:17:19;72.00;53.75;32.25
80861;PMS5003;71798;54.942;73.444;2024-02-23T01:19:45;68.00;53.00;32.00
80861;PMS5003;71798;54.942;73.444;2024-02-23T01:22:11;63.75;48.25;30.00
80861;PMS5003;71798;54.942;73.444;2024-02-23T01:24:38;69.00;52.00;32.00
80861;PMS5003;71798;54.942;73.444;2024-02-23T01:27:04;68.00;52.00;31.00
80861;PMS5003;71798;54.942;73.444;2024-02-23T01:29:30;67.75;50.50;31.50
80861;PMS5003;71798;54.942;73.444;2024-02-23T01:31:56;66.50;50.25;30.00
80861;PMS5003;71798;54.942;73.444;2024-02-23T01:38:24;60.75;46.50;27.00
80861;PMS5003;71798;54.942;73.444;2024-02-23T01:41:35;66.50;50.75;31.00
80861;PMS5003;71798;54.942;73.444;2024-02-23T01:44:46;64.00;49.00;29.00
80861;PMS5003;71798;54.942;73.444;2024-02-23T01:47:57;57.00;45.00;28.00
80861;PMS5003;71798;54.942;73.444;2024-02-23T01:54:25;63.25;49.00;30.00
80861;PMS5003;71798;54.942;73.444;2024-02-23T01:57:35;66.00;50.00;30.75
80861;PMS5003;71798;54.942;73.444;2024-02-23T02:00:47;63.00;50.00;31.00
80861;PMS5003;71798;54.942;73.444;2024-02-23T02:03:58;67.00;51.00;32.00
80861;PMS5003;71798;54.942;73.444;2024-02-23T02:10:31;62.00;48.50;31.25
80861;PMS5003;71798;54.942;73.444;2024-02-23T02:13:42;61.50;46.25;26.25
80861;PMS5003;71798;54.942;73.444;2024-02-23T02:16:08;66.00;50.00;29.50
80861;PMS5003;71798;54.942;73.444;2024-02-23T02:18:34;72.00;54.00;33.00
80861;PMS5003;71798;54.942;73.444;2024-02-23T02:21:00;49.25;36.25;22.00
80861;PMS5003;71798;54.942;73.444;2024-02-23T02:23:27;60.75;45.50;27.50
80861;PMS5003;71798;54.942;73.444;2024-02-23T02:25:56;57.25;45.00;28.00
80861;PMS5003;71798;54.942;73.444;2024-02-23T02:28:23;62.00;49.00;31.50
80861;PMS5003;71798;54.942;73.444;2024-02-23T02:30:50;58.50;45.50;27.00
80861;PMS5003;71798;54.942;73.444;2024-02-23T02:33:16;60.00;46.25;28.75
80861;PMS5003;71798;54.942;73.444;2024-02-23T02:35:42;59.25;45.50;27.00
80861;PMS5003;71798;54.942;73.444;2024-02-23T02:38:10;53.75;41.00;26.00
80861;PMS5003;71798;54.942;73.444;2024-02-23T02:40:37;60.25;47.75;29.00
80861;PMS5003;71798;54.942;73.444;2024-02-23T02:43:03;76.50;61.75;35.25
80861;PMS5003;71798;54.942;73.444;2024-02-23T02:45:30;66.00;49.75;28.00
80861;PMS5003;71798;54.942;73.444;2024-02-23T02:47:56;65.00;50.00;30.00
80861;PMS5003;71798;54.942;73.444;2024-02-23T02:50:23;67.00;53.00;32.00
80861;PMS5003;71798;54.942;73.444;2024-02-23T02:52:49;65.00;49.00;30.00
80861;PMS5003;71798;54.942;73.444;2024-02-23T02:55:15;78.00;65.25;37.00
80861;PMS5003;71798;54.942;73.444;2024-02-23T02:57:41;68.75;52.00;32.00
80861;PMS5003;71798;54.942;73.444;2024-02-23T03:00:09;70.00;54.00;33.00
80861;PMS5003;71798;54.942;73.444;2024-02-23T03:02:36;74.75;61.75;37.50
80861;PMS5003;71798;54.942;73.444;2024-02-23T03:05:02;64.50;49.00;29.50
80861;PMS5003;71798;54.942;73.444;2024-02-23T03:08:14;54.75;43.75;25.00
80861;PMS5003;71798;54.942;73.444;2024-02-23T03:11:25;62.00;47.50;28.00
80861;PMS5003;71798;54.942;73.444;2024-02-23T03:14:36;71.00;53.75;31.50
80861;PMS5003;71798;54.942;73.444;2024-02-23T03:17:07;60.25;47.00;27.50
80861;PMS5003;71798;54.942;73.444;2024-02-23T03:19:37;57.00;45.75;27.25
80861;PMS5003;71798;54.942;73.444;2024-02-23T03:22:07;65.25;48.50;29.25
80861;PMS5003;71798;54.942;73.444;2024-02-23T03:24:35;70.00;54.75;33.00
80861;PMS5003;71798;54.942;73.444;2024-02-23T03:27:08;71.50;53.50;32.50
80861;PMS5003;71798;54.942;73.444;2024-02-23T03:29:40;73.00;58.00;34.25
80861;PMS5003;71798;54.942;73.444;2024-02-23T03:32:10;54.50;41.75;24.50
80861;PMS5003;71798;54.942;73.444;2024-02-23T03:34:39;72.50;55.25;33.75
80861;PMS5003;71798;54.942;73.444;2024-02-23T03:37:10;67.75;50.00;30.75
80861;PMS5003;71798;54.942;73.444;2024-02-23T03:39:40;67.25;50.75;30.75
80861;PMS5003;71798;54.942;73.444;2024-02-23T03:42:11;68.25;53.00;32.00
80861;PMS5003;71798;54.942;73.444;2024-02-23T03:44:43;116.50;96.50;61.00
80861;PMS5003;71798;54.942;73.444;2024-02-23T03:47:13;92.50;77.25;45.75
80861;PMS5003;71798;54.942;73.444;2024-02-23T03:49:43;81.00;68.00;40.00
80861;PMS5003;71798;54.942;73.444;2024-02-23T03:52:13;72.75;57.50;35.00
80861;PMS5003;71798;54.942;73.444;2024-02-23T03:54:41;81.00;66.50;38.00
80861;PMS5003;71798;54.942;73.444;2024-02-23T03:57:09;80.00;68.00;38.75
80861;PMS5003;71798;54.942;73.444;2024-02-23T03:59:39;77.25;63.50;36.00
80861;PMS5003;71798;54.942;73.444;2024-02-23T04:02:09;66.50;51.00;29.00
80861;PMS5003;71798;54.942;73.444;2024-02-23T04:04:38;67.25;51.50;30.50
80861;PMS5003;71798;54.942;73.444;2024-02-23T04:07:11;60.75;47.50;28.25
80861;PMS5003;71798;54.942;73.444;2024-02-23T04:09:40;54.25;41.00;24.25
80861;PMS5003;71798;54.942;73.444;2024-02-23T04:12:09;58.00;43.75;26.50
80861;PMS5003;71798;54.942;73.444;2024-02-23T04:14:38;59.00;45.50;27.00
80861;PMS5003;71798;54.942;73.444;2024-02-23T04:17:07;68.50;51.75;31.00
80861;PMS5003;71798;54.942;73.444;2024-02-23T04:19:38;87.00;70.00;40.00
80861;PMS5003;71798;54.942;73.444;2024-02-23T04:22:08;93.50;78.50;45.00
80861;PMS5003;71798;54.942;73.444;2024-02-23T04:24:41;83.75;67.50;38.50
80861;PMS5003;71798;54.942;73.444;2024-02-23T04:27:09;91.00;75.75;45.25
80861;PMS5003;71798;54.942;73.444;2024-02-23T04:29:38;83.50;70.50;42.75
80861;PMS5003;71798;54.942;73.444;2024-02-23T04:32:07;76.00;60.25;34.00
80861;PMS5003;71798;54.942;73.444;2024-02-23T04:34:35;82.25;68.00;40.00
80861;PMS5003;71798;54.942;73.444;2024-02-23T04:37:06;84.00;70.25;41.25
80861;PMS5003;71798;54.942;73.444;2024-02-23T04:39:39;87.75;72.50;42.00
80861;PMS5003;71798;54.942;73.444;2024-02-23T04:42:10;75.75;59.25;34.00
80861;PMS5003;71798;54.942;73.444;2024-02-23T04:44:42;89.50;74.25;43.25
80861;PMS5003;71798;54.942;73.444;2024-02-23T04:47:10;73.25;57.75;35.00
80861;PMS5003;71798;54.942;73.444;2024-02-23T04:49:38;77.75;63.75;38.00
80861;PMS5003;71798;54.942;73.444;2024-02-23T04:52:10;81.00;68.00;40.50
80861;PMS5003;71798;54.942;73.444;2024-02-23T04:54:39;60.25;47.00;28.25
80861;PMS5003;71798;54.942;73.444;2024-02-23T04:57:06;78.00;64.00;38.00
80861;PMS5003;71798;54.942;73.444;2024-02-23T04:59:38;75.25;60.00;33.75
80861;PMS5003;71798;54.942;73.444;2024-02-23T05:02:07;78.75;63.50;38.25
80861;PMS5003;71798;54.942;73.444;2024-02-23T05:04:37;98.75;78.75;42.00
80861;PMS5003;71798;54.942;73.444;2024-02-23T05:07:06;77.00;60.25;33.00
80861;PMS5003;71798;54.942;73.444;2024-02-23T05:09:36;49.00;38.00;21.00
80861;PMS5003;71798;54.942;73.444;2024-02-23T05:12:10;64.00;50.00;30.00
80861;PMS5003;71798;54.942;73.444;2024-02-23T05:14:38;80.00;69.00;41.00
80861;PMS5003;71798;54.942;73.444;2024-02-23T05:17:08;59.75;46.75;29.25
80861;PMS5003;71798;54.942;73.444;2024-02-23T05:19:37;69.25;52.50;32.00
80861;PMS5003;71798;54.942;73.444;2024-02-23T05:22:06;76.75;59.75;35.00
80861;PMS5003;71798;54.942;73.444;2024-02-23T05:24:35;74.25;59.25;34.75
80861;PMS5003;71798;54.942;73.444;2024-02-23T05:27:06;69.75;54.25;33.00
80861;PMS5003;71798;54.942;73.444;2024-02-23T05:29:36;74.00;59.00;35.00
80861;PMS5003;71798;54.942;73.444;2024-02-23T05:32:05;67.75;52.50;31.25
80861;PMS5003;71798;54.942;73.444;2024-02-23T05:34:36;72.00;56.00;33.00
80861;PMS5003;71798;54.942;73.444;2024-02-23T05:37:05;70.25;54.25;33.00
80861;PMS5003;71798;54.942;73.444;2024-02-23T05:39:35;77.25;63.75;38.25
80861;PMS5003;71798;54.942;73.444;2024-02-23T05:42:05;66.00;50.50;30.50
80861;PMS5003;71798;54.942;73.444;2024-02-23T05:44:33;81.00;64.00;35.50
80861;PMS5003;71798;54.942;73.444;2024-02-23T05:47:03;66.00;50.25;28.50
80861;PMS5003;71798;54.942;73.444;2024-02-23T05:49:35;70.00;52.00;30.00
80861;PMS5003;71798;54.942;73.444;2024-02-23T05:52:03;55.00;42.50;25.00
80861;PMS5003;71798;54.942;73.444;2024-02-23T05:54:34;43.00;34.00;18.00
80861;PMS5003;71798;54.942;73.444;2024-02-23T05:57:04;55.00;42.00;25.75
80861;PMS5003;71798;54.942;73.444;2024-02-23T05:59:34;40.75;32.00;17.25
80861;PMS5003;71798;54.942;73.444;2024-02-23T06:02:04;47.75;38.50;23.00
80861;PMS5003;71798;54.942;73.444;2024-02-23T06:04:35;41.00;33.00;19.00
80861;PMS5003;71798;54.942;73.444;2024-02-23T06:07:06;47.00;36.50;22.00
80861;PMS5003;71798;54.942;73.444;2024-02-23T06:09:37;33.00;27.00;16.00
80861;PMS5003;71798;54.942;73.444;2024-02-23T06:12:07;49.00;35.75;21.00
80861;PMS5003;71798;54.942;73.444;2024-02-23T06:14:39;45.25;35.25;19.50
80861;PMS5003;71798;54.942;73.444;2024-02-23T06:17:09;48.75;38.00;22.00
80861;PMS5003;71798;54.942;73.444;2024-02-23T06:19:39;59.75;44.50;25.25
80861;PMS5003;71798;54.942;73.444;2024-02-23T06:22:11;61.75;46.25;26.75
80861;PMS5003;71798;54.942;73.444;2024-02-23T06:24:41;43.50;34.00;19.50
80861;PMS5003;71798;54.942;73.444;2024-02-23T06:27:13;47.75;36.25;20.25
80861;PMS5003;71798;54.942;73.444;2024-02-23T06:29:42;54.25;41.50;24.25
80861;PMS5003;71798;54.942;73.444;2024-02-23T06:32:16;40.25;31.25;18.00
80861;PMS5003;71798;54.942;73.444;2024-02-23T06:34:45;38.50;29.50;16.00
80861;PMS5003;71798;54.942;73.444;2024-02-23T06:37:19;30.50;24.00;13.00
80861;PMS5003;71798;54.942;73.444;2024-02-23T06:39:49;39.50;31.00;19.00
80861;PMS5003;71798;54.942;73.444;2024-02-23T06:42:25;42.25;33.00;19.50
80861;PMS5003;71798;54.942;73.444;2024-02-23T06:44:56;33.75;27.00;17.00
80861;PMS5003;71798;54.942;73.444;2024-02-23T06:47:26;44.25;34.50;20.25
80861;PMS5003;71798;54.942;73.444;2024-02-23T06:49:55;37.00;28.00;15.50
80861;PMS5003;71798;54.942;73.444;2024-02-23T06:52:24;32.50;23.50;16.00
80861;PMS5003;71798;54.942;73.444;2024-02-23T06:54:53;26.00;23.00;11.25
80861;PMS5003;71798;54.942;73.444;2024-02-23T06:57:23;19.75;17.00;9.00
80861;PMS5003;71798;54.942;73.444;2024-02-23T06:59:56;40.50;32.00;19.75
80861;PMS5003;71798;54.942;73.444;2024-02-23T07:02:26;30.75;24.50;15.00
80861;PMS5003;71798;54.942;73.444;2024-02-23T07:04:55;37.00;29.00;17.00
80861;PMS5003;71798;54.942;73.444;2024-02-23T07:07:27;35.00;29.50;17.50
80861;PMS5003;71798;54.942;73.444;2024-02-23T07:10:00;36.25;27.75;14.00
80861;PMS5003;71798;54.942;73.444;2024-02-23T07:12:29;38.50;29.50;16.25
80861;PMS5003;71798;54.942;73.444;2024-02-23T07:14:58;41.75;32.50;19.00
80861;PMS5003;71798;54.942;73.444;2024-02-23T07:17:28;31.25;25.00;14.00
80861;PMS5003;71798;54.942;73.444;2024-02-23T07:19:58;27.00;22.25;13.25
80861;PMS5003;71798;54.942;73.444;2024-02-23T07:22:33;24.25;20.25;11.50
80861;PMS5003;71798;54.942;73.444;2024-02-23T07:25:06;32.00;26.00;16.00
80861;PMS5003;71798;54.942;73.444;2024-02-23T07:27:35;33.25;26.25;16.00
80861;PMS5003;71798;54.942;73.444;2024-02-23T07:30:04;37.00;29.00;18.00
80861;PMS5003;71798;54.942;73.444;2024-02-23T07:32:35;32.25;26.50;15.50
80861;PMS5003;71798;54.942;73.444;2024-02-23T07:39:08;23.25;18.25;10.00
80861;PMS5003;71798;54.942;73.444;2024-02-23T07:42:20;30.75;24.50;12.00
80861;PMS5003;71798;54.942;73.444;2024-02-23T07:45:30;35.50;29.25;18.00
80861;PMS5003;71798;54.942;73.444;2024-02-23T07:48:42;33.50;28.00;16.25
80861;PMS5003;71798;54.942;73.444;2024-02-23T07:55:11;16.00;13.00;6.25
80861;PMS5003;71798;54.942;73.444;2024-02-23T07:58:22;27.25;21.25;12.00
80861;PMS5003;71798;54.942;73.444;2024-02-23T08:01:33;32.75;26.50;16.25
80861;PMS5003;71798;54.942;73.444;2024-02-23T08:04:44;26.75;22.50;13.25
80861;PMS5003;71798;54.942;73.444;2024-02-23T08:11:13;25.00;20.00;10.00
80861;PMS5003;71798;54.942;73.444;2024-02-23T08:14:24;32.75;25.25;14.50
80861;PMS5003;71798;54.942;73.444;2024-02-23T08:17:35;36.00;29.00;16.25
80861;PMS5003;71798;54.942;73.444;2024-02-23T08:20:47;26.50;22.00;12.25
80861;PMS5003;71798;54.942;73.444;2024-02-23T08:23:13;30.25;23.75;13.75
80861;PMS5003;71798;54.942;73.444;2024-02-23T08:25:39;28.75;22.25;12.25
80861;PMS5003;71798;54.942;73.444;2024-02-23T08:28:06;33.75;26.00;16.25
80861;PMS5003;71798;54.942;73.444;2024-02-23T08:30:33;36.75;29.00;16.00
80861;PMS5003;71798;54.942;73.444;2024-02-23T08:32:59;28.00;22.25;12.00
80861;PMS5003;71798;54.942;73.444;2024-02-23T08:35:26;28.00;24.00;13.75
80861;PMS5003;71798;54.942;73.444;2024-02-23T08:37:53;35.75;28.25;16.50
80861;PMS5003;71798;54.942;73.444;2024-02-23T08:40:19;21.00;17.00;9.00
80861;PMS5003;71798;54.942;73.444;2024-02-23T08:42:46;30.25;25.00;15.00
80861;PMS5003;71798;54.942;73.444;2024-02-23T08:45:13;24.00;19.25;11.25
80861;PMS5003;71798;54.942;73.444;2024-02-23T08:47:41;28.00;22.50;12.00
80861;PMS5003;71798;54.942;73.444;2024-02-23T08:50:07;28.75;23.00;12.00
80861;PMS5003;71798;54.942;73.444;2024-02-23T08:52:33;29.00;23.75;14.50
80861;PMS5003;71798;54.942;73.444;2024-02-23T08:55:00;36.00;28.00;16.00
80861;PMS5003;71798;54.942;73.444;2024-02-23T08:57:29;31.25;26.00;14.25
80861;PMS5003;71798;54.942;73.444;2024-02-23T08:59:56;22.00;19.00;9.00
80861;PMS5003;71798;54.942;73.444;2024-02-23T09:02:24;33.50;27.00;16.00
80861;PMS5003;71798;54.942;73.444;2024-02-23T09:04:50;33.00;25.25;15.00
80861;PMS5003;71798;54.942;73.444;2024-02-23T09:07:16;26.00;19.00;10.00
80861;PMS5003;71798;54.942;73.444;2024-02-23T09:09:46;23.00;18.25;9.50
80861;PMS5003;71798;54.942;73.444;2024-02-23T09:12:12;23.00;20.00;10.50
80861;PMS5003;71798;54.942;73.444;2024-02-23T09:14:40;33.00;26.50;15.25
80861;PMS5003;71798;54.942;73.444;2024-02-23T09:17:07;30.75;24.00;14.00
80861;PMS5003;71798;54.942;73.444;2024-02-23T09:19:34;34.00;27.00;15.50
80861;PMS5003;71798;54.942;73.444;2024-02-23T09:22:00;33.75;26.25;15.25
80861;PMS5003;71798;54.942;73.444;2024-02-23T09:24:28;18.00;15.00;9.00
80861;PMS5003;71798;54.942;73.444;2024-02-23T09:26:54;15.00;11.75;6.75
80861;PMS5003;71798;54.942;73.444;2024-02-23T09:29:20;24.00;20.00;11.00
80861;PMS5003;71798;54.942;73.444;2024-02-23T09:31:47;22.75;19.75;10.50
80861;PMS5003;71798;54.942;73.444;2024-02-23T09:34:13;31.75;26.75;15.75
80861;PMS5003;71798;54.942;73.444;2024-02-23T09:36:40;31.75;25.00;14.75
80861;PMS5003;71798;54.942;73.444;2024-02-23T09:39:06;21.75;17.25;10.00
80861;PMS5003;71798;54.942;73.444;2024-02-23T09:41:32;23.50;19.25;10.50
80861;PMS5003;71798;54.942;73.444;2024-02-23T09:44:01;18.25;14.50;7.25
80861;PMS5003;71798;54.942;73.444;2024-02-23T09:46:27;22.00;16.00;8.75
80861;PMS5003;71798;54.942;73.444;2024-02-23T09:48:53;17.75;14.75;8.25
80861;PMS5003;71798;54.942;73.444;2024-02-23T09:51:21;32.25;26.75;14.25
80861;PMS5003;71798;54.942;73.444;2024-02-23T09:53:49;24.75;18.50;8.75
80861;PMS5003;71798;54.942;73.444;2024-02-23T09:56:16;34.00;28.00;16.00
80861;PMS5003;71798;54.942;73.444;2024-02-23T09:58:43;35.25;29.00;16.75
80861;PMS5003;71798;54.942;73.444;2024-02-23T10:01:10;38.00;28.00;17.75
80861;PMS5003;71798;54.942;73.444;2024-02-23T10:03:38;17.50;14.75;9.75
80861;PMS5003;71798;54.942;73.444;2024-02-23T10:06:04;21.50;17.25;10.00
80861;PMS5003;71798;54.942;73.444;2024-02-23T10:08:31;33.50;26.50;16.25
80861;PMS5003;71798;54.942;73.444;2024-02-23T10:10:57;22.25;17.50;10.00
80861;PMS5003;71798;54.942;73.444;2024-02-23T10:13:23;29.75;24.00;14.00
80861;PMS5003;71798;54.942;73.444;2024-02-23T10:15:53;33.50;26.50;16.25
80861;PMS5003;71798;54.942;73.444;2024-02-23T10:18:19;37.00;26.50;15.50
80861;PMS5003;71798;54.942;73.444;2024-02-23T10:20:48;36.25;29.00;18.00
80861;PMS5003;71798;54.942;73.444;2024-02-23T10:23:16;22.50;18.25;11.50
80861;PMS5003;71798;54.942;73.444;2024-02-23T10:25:45;15.25;13.00;7.00
80861;PMS5003;71798;54.942;73.444;2024-02-23T10:28:12;27.50;22.00;12.00
80861;PMS5003;71798;54.942;73.444;2024-02-23T10:30:38;15.25;13.25;7.00
80861;PMS5003;71798;54.942;73.444;2024-02-23T10:33:05;18.00;15.75;8.75
80861;PMS5003;71798;54.942;73.444;2024-02-23T10:35:31;22.50;17.50;9.50
80861;PMS5003;71798;54.942;73.444;2024-02-23T10:38:01;23.00;21.00;12.00
80861;PMS5003;71798;54.942;73.444;2024-02-23T10:40:27;34.00;27.25;16.75
80861;PMS5003;71798;54.942;73.444;2024-02-23T10:42:57;22.25;17.50;10.00
80861;PMS5003;71798;54.942;73.444;2024-02-23T10:45:28;31.00;23.25;13.00
80861;PMS5003;71798;54.942;73.444;2024-02-23T10:47:55;23.50;19.25;11.25
80861;PMS5003;71798;54.942;73.444;2024-02-23T10:50:21;33.00;25.25;12.75
80861;PMS5003;71798;54.942;73.444;2024-02-23T10:52:48;28.25;23.50;13.00
80861;PMS5003;71798;54.942;73.444;2024-02-23T10:55:15;36.75;29.00;16.25
80861;PMS5003;71798;54.942;73.444;2024-02-23T10:57:43;33.25;27.00;15.00
80861;PMS5003;71798;54.942;73.444;2024-02-23T11:00:09;36.00;28.00;17.50
80861;PMS5003;71798;54.942;73.444;2024-02-23T11:02:37;36.50;30.00;17.50
80861;PMS5003;71798;54.942;73.444;2024-02-23T11:05:04;41.00;29.00;16.75
80861;PMS5003;71798;54.942;73.444;2024-02-23T11:07:31;26.75;20.00;11.25
80861;PMS5003;71798;54.942;73.444;2024-02-23T11:09:58;36.00;28.75;17.00
80861;PMS5003;71798;54.942;73.444;2024-02-23T11:12:25;27.00;22.00;12.00
80861;PMS5003;71798;54.942;73.444;2024-02-23T11:14:56;24.50;18.25;11.25
80861;PMS5003;71798;54.942;73.444;2024-02-23T11:17:22;31.00;23.50;14.00
80861;PMS5003;71798;54.942;73.444;2024-02-23T11:19:49;17.25;14.00;8.00
80861;PMS5003;71798;54.942;73.444;2024-02-23T11:22:23;24.75;19.00;11.75
80861;PMS5003;71798;54.942;73.444;2024-02-23T11:24:49;31.25;25.00;14.00
80861;PMS5003;71798;54.942;73.444;2024-02-23T11:27:17;29.50;24.25;15.00
80861;PMS5003;71798;54.942;73.444;2024-02-23T11:29:47;21.00;17.75;11.50
80861;PMS5003;71798;54.942;73.444;2024-02-23T11:32:15;25.50;18.25;9.75
80861;PMS5003;71798;54.942;73.444;2024-02-23T11:34:42;27.50;22.00;12.00
80861;PMS5003;71798;54.942;73.444;2024-02-23T11:37:09;28.25;22.50;13.50
80861;PMS5003;71798;54.942;73.444;2024-02-23T11:39:39;20.00;18.00;10.25
80861;PMS5003;71798;54.942;73.444;2024-02-23T11:42:06;14.50;11.75;5.50
80861;PMS5003;71798;54.942;73.444;2024-02-23T11:44:32;32.25;26.00;15.00
80861;PMS5003;71798;54.942;73.444;2024-02-23T11:46:58;37.00;29.75;16.75
80861;PMS5003;71798;54.942;73.444;2024-02-23T11:49:28;31.00;25.00;15.00
80861;PMS5003;71798;54.942;73.444;2024-02-23T11:51:55;27.50;22.25;12.00
80861;PMS5003;71798;54.942;73.444;2024-02-23T11:54:22;21.50;18.00;8.00
80861;PMS5003;71798;54.942;73.444;2024-02-23T11:56:48;29.25;25.50;14.50
80861;PMS5003;71798;54.942;73.444;2024-02-23T11:59:15;27.50;23.00;12.00
80861;PMS5003;71798;54.942;73.444;2024-02-23T12:01:41;29.00;22.50;13.25
80861;PMS5003;71798;54.942;73.444;2024-02-23T12:04:08;26.00;22.00;12.25
80861;PMS5003;71798;54.942;73.444;2024-02-23T12:06:34;20.25;15.25;9.75
80861;PMS5003;71798;54.942;73.444;2024-02-23T12:09:00;51.75;39.25;23.50
80861;PMS5003;71798;54.942;73.444;2024-02-23T12:11:27;27.75;22.75;13.25
80861;PMS5003;71798;54.942;73.444;2024-02-23T12:14:13;32.50;26.00;17.00
80861;PMS5003;71798;54.942;73.444;2024-02-23T12:16:40;33.50;25.50;15.00
80861;PMS5003;71798;54.942;73.444;2024-02-23T12:19:07;30.75;23.25;13.25
80861;PMS5003;71798;54.942;73.444;2024-02-23T12:21:34;25.00;20.00;10.00
80861;PMS5003;71798;54.942;73.444;2024-02-23T12:24:05;35.75;27.75;16.00
80861;PMS5003;71798;54.942;73.444;2024-02-23T12:26:34;41.50;33.50;19.00
80861;PMS5003;71798;54.942;73.444;2024-02-23T12:29:01;46.50;35.50;20.50
80861;PMS5003;71798;54.942;73.444;2024-02-23T12:31:39;42.00;34.00;20.00
80861;PMS5003;71798;54.942;73.444;2024-02-23T12:34:06;34.00;27.25;17.00
80861;PMS5003;71798;54.942;73.444;2024-02-23T12:36:34;34.25;28.00;16.00
80861;PMS5003;71798;54.942;73.444;2024-02-23T12:39:13;28.25;22.75;12.00
80861;PMS5003;71798;54.942;73.444;2024-02-23T12:41:39;34.50;26.75;15.50
80861;PMS5003;71798;54.942;73.444;2024-02-23T12:44:05;30.00;24.25;14.75
80861;PMS5003;71798;54.942;73.444;2024-02-23T12:46:32;34.25;27.00;16.00
80861;PMS5003;71798;54.942;73.444;2024-02-23T12:48:58;41.50;34.00;20.00
80861;PMS5003;71798;54.942;73.444;2024-02-23T12:51:31;43.75;34.75;21.00
80861;PMS5003;71798;54.942;73.444;2024-02-23T12:53:57;29.75;23.75;12.75
80861;PMS5003;71798;54.942;73.444;2024-02-23T12:56:23;41.00;32.00;18.00
80861;PMS5003;71798;54.942;73.444;2024-02-23T12:58:51;40.00;31.00;19.00
80861;PMS5003;71798;54.942;73.444;2024-02-23T13:01:19;42.25;33.00;18.00
80861;PMS5003;71798;54.942;73.444;2024-02-23T13:03:45;37.25;29.75;17.00
80861;PMS5003;71798;54.942;73.444;2024-02-23T13:06:12;30.00;24.25;13.00
80861;PMS5003;71798;54.942;73.444;2024-02-23T13:08:45;34.25;25.75;16.00
80861;PMS5003;71798;54.942;73.444;2024-02-23T13:11:12;41.75;35.00;21.00
80861;PMS5003;71798;54.942;73.444;2024-02-23T13:13:38;54.50;40.25;22.25
80861;PMS5003;71798;54.942;73.444;2024-02-23T13:16:04;44.25;34.50;19.75
80861;PMS5003;71798;54.942;73.444;2024-02-23T13:18:31;46.50;36.00;22.00
80861;PMS5003;71798;54.942;73.444;2024-02-23T13:20:57;44.00;34.25;20.25
80861;PMS5003;71798;54.942;73.444;2024-02-23T13:23:23;40.00;30.25;17.00
80861;PMS5003;71798;54.942;73.444;2024-02-23T13:25:50;34.00;26.25;14.75
80861;PMS5003;71798;54.942;73.444;2024-02-23T13:28:16;43.75;34.50;19.00
80861;PMS5003;71798;54.942;73.444;2024-02-23T13:30:43;47.00;38.00;23.00
80861;PMS5003;71798;54.942;73.444;2024-02-23T13:33:10;28.75;23.75;12.50
80861;PMS5003;71798;54.942;73.444;2024-02-23T13:35:36;46.75;36.25;20.75
80861;PMS5003;71798;54.942;73.444;2024-02-23T13:38:03;49.75;39.00;22.75
80861;PMS5003;71798;54.942;73.444;2024-02-23T13:40:29;30.50;24.50;14.00
80861;PMS5003;71798;54.942;73.444;2024-02-23T13:43:05;36.50;29.75;17.00
80861;PMS5003;71798;54.942;73.444;2024-02-23T13:45:32;47.50;36.50;20.00
80861;PMS5003;71798;54.942;73.444;2024-02-23T13:48:02;34.75;27.00;14.50
80861;PMS5003;71798;54.942;73.444;2024-02-23T13:50:28;40.25;32.00;18.50
80861;PMS5003;71798;54.942;73.444;2024-02-23T13:52:55;21.50;17.25;8.50
80861;PMS5003;71798;54.942;73.444;2024-02-23T13:55:21;35.75;29.00;15.25
80861;PMS5003;71798;54.942;73.444;2024-02-23T13:57:47;47.50;38.00;24.50
80861;PMS5003;71798;54.942;73.444;2024-02-23T14:00:15;55.50;43.25;26.00
80861;PMS5003;71798;54.942;73.444;2024-02-23T14:02:41;29.75;25.00;15.00
80861;PMS5003;71798;54.942;73.444;2024-02-23T14:05:08;34.50;28.00;16.75
80861;PMS5003;71798;54.942;73.444;2024-02-23T14:07:34;48.50;37.75;22.00
80861;PMS5003;71798;54.942;73.444;2024-02-23T14:10:01;56.00;42.00;24.00
80861;PMS5003;71798;54.942;73.444;2024-02-23T14:12:28;50.25;39.25;23.00
80861;PMS5003;71798;54.942;73.444;2024-02-23T14:14:55;40.25;31.00;18.75
80861;PMS5003;71798;54.942;73.444;2024-02-23T14:17:21;51.00;40.50;23.75